sensor_id;sensor_type;location;lat;lon;timestamp;temperature;humidity
6098;DHT22;3077;50.922;6.584;2022-10-16T00:01:18;15.00;99.90
6098;DHT22;3077;50.922;6.584;2022-10-16T00:03:45;15.00;99.90
6098;DHT22;3077;50.922;6.584;2022-10-16T00:06:11;15.00;99.90
6098;DHT22;3077;50.922;6.584;2022-10-16T00:08:38;15.00;99.90
6098;DHT22;3077;50.922;6.584;2022-10-16T00:11:07;14.90;99.90
6098;DHT22;3077;50.922;6.584;2022-10-16T00:13:34;14.90;99.90
6098;DHT22;3077;50.922;6.584;2022-10-16T00:16:00;14.90;99.90
6098;DHT22;3077;50.922;6.584;2022-10-16T00:18:27;14.90;99.90
6098;DHT22;3077;50.922;6.584;2022-10-16T00:20:53;14.90;99.90
6098;DHT22;3077;50.922;6.584;2022-10-16T00:23:19;14.90;99.90
6098;DHT22;3077;50.922;6.584;2022-10-16T00:25:45;14.90;99.90
6098;DHT22;3077;50.922;6.584;2022-10-16T00:28:19;14.90;99.90
6098;DHT22;3077;50.922;6.584;2022-10-16T00:30:44;14.80;99.90
6098;DHT22;3077;50.922;6.584;2022-10-16T00:33:10;14.80;99.90
6098;DHT22;3077;50.922;6.584;2022-10-16T00:35:35;14.70;99.90
6098;DHT22;3077;50.922;6.584;2022-10-16T00:38:01;14.70;99.90
6098;DHT22;3077;50.922;6.584;2022-10-16T00:40:26;14.60;99.90
6098;DHT22;3077;50.922;6.584;2022-10-16T00:42:53;14.70;99.90
6098;DHT22;3077;50.922;6.584;2022-10-16T00:45:19;14.60;99.90
6098;DHT22;3077;50.922;6.584;2022-10-16T00:47:45;14.50;99.90
6098;DHT22;3077;50.922;6.584;2022-10-16T00:50:33;14.50;99.90
6098;DHT22;3077;50.922;6.584;2022-10-16T00:53:00;14.40;99.90
6098;DHT22;3077;50.922;6.584;2022-10-16T00:55:27;14.40;99.90
6098;DHT22;3077;50.922;6.584;2022-10-16T00:57:56;14.40;99.90
6098;DHT22;3077;50.922;6.584;2022-10-16T01:00:25;14.40;99.90
6098;DHT22;3077;50.922;6.584;2022-10-16T01:02:56;14.40;99.90
6098;DHT22;3077;50.922;6.584;2022-10-16T01:05:24;14.40;99.90
6098;DHT22;3077;50.922;6.584;2022-10-16T01:08:01;14.30;99.90
6098;DHT22;3077;50.922;6.584;2022-10-16T01:10:39;14.30;99.90
6098;DHT22;3077;50.922;6.584;2022-10-16T01:13:11;14.30;99.90
6098;DHT22;3077;50.922;6.584;2022-10-16T01:15:52;14.30;99.90
6098;DHT22;3077;50.922;6.584;2022-10-16T01:18:43;14.30;99.90
6098;DHT22;3077;50.922;6.584;2022-10-16T01:29:09;14.30;99.90
6098;DHT22;3077;50.922;6.584;2022-10-16T01:31:39;14.20;99.90
6098;DHT22;3077;50.922;6.584;2022-10-16T01:34:10;14.20;99.90
6098;DHT22;3077;50.922;6.584;2022-10-16T01:36:47;14.20;99.90
6098;DHT22;3077;50.922;6.584;2022-10-16T01:39:18;14.20;99.90
6098;DHT22;3077;50.922;6.584;2022-10-16T01:41:49;14.20;99.90
6098;DHT22;3077;50.922;6.584;2022-10-16T01:44:23;14.20;99.90
6098;DHT22;3077;50.922;6.584;2022-10-16T01:46:52;14.20;99.90
6098;DHT22;3077;50.922;6.584;2022-10-16T01:49:18;14.20;99.90
6098;DHT22;3077;50.922;6.584;2022-10-16T01:51:47;14.20;99.90
6098;DHT22;3077;50.922;6.584;2022-10-16T01:54:15;14.20;99.90
6098;DHT22;3077;50.922;6.584;2022-10-16T01:56:42;14.20;99.90
6098;DHT22;3077;50.922;6.584;2022-10-16T01:59:15;14.20;99.90
6098;DHT22;3077;50.922;6.584;2022-10-16T02:01:49;14.20;99.90
6098;DHT22;3077;50.922;6.584;2022-10-16T02:04:39;14.30;99.90
6098;DHT22;3077;50.922;6.584;2022-10-16T02:07:06;14.30;99.90
6098;DHT22;3077;50.922;6.584;2022-10-16T02:09:35;14.30;99.90
6098;DHT22;3077;50.922;6.584;2022-10-16T02:12:07;14.30;99.90
6098;DHT22;3077;50.922;6.584;2022-10-16T02:14:34;14.30;99.90
6098;DHT22;3077;50.922;6.584;2022-10-16T02:17:14;14.40;99.90
6098;DHT22;3077;50.922;6.584;2022-10-16T02:19:40;14.50;99.90
6098;DHT22;3077;50.922;6.584;2022-10-16T02:22:09;14.60;99.90
6098;DHT22;3077;50.922;6.584;2022-10-16T02:27:14;14.60;99.90
6098;DHT22;3077;50.922;6.584;2022-10-16T02:29:46;14.60;99.90
6098;DHT22;3077;50.922;6.584;2022-10-16T02:32:19;14.60;99.90
6098;DHT22;3077;50.922;6.584;2022-10-16T02:34:48;14.60;99.90
6098;DHT22;3077;50.922;6.584;2022-10-16T02:37:14;14.60;99.90
6098;DHT22;3077;50.922;6.584;2022-10-16T02:39:41;14.70;99.90
6098;DHT22;3077;50.922;6.584;2022-10-16T02:42:12;14.70;99.90
6098;DHT22;3077;50.922;6.584;2022-10-16T02:44:38;14.60;99.90
6098;DHT22;3077;50.922;6.584;2022-10-16T02:47:04;14.50;99.90
6098;DHT22;3077;50.922;6.584;2022-10-16T02:49:29;14.50;99.90
6098;DHT22;3077;50.922;6.584;2022-10-16T02:51:55;14.50;99.90
6098;DHT22;3077;50.922;6.584;2022-10-16T02:54:20;14.50;99.90
6098;DHT22;3077;50.922;6.584;2022-10-16T02:56:46;14.40;99.90
6098;DHT22;3077;50.922;6.584;2022-10-16T02:59:12;14.40;99.90
6098;DHT22;3077;50.922;6.584;2022-10-16T03:01:37;14.40;99.90
6098;DHT22;3077;50.922;6.584;2022-10-16T03:04:03;14.40;99.90
6098;DHT22;3077;50.922;6.584;2022-10-16T03:06:28;14.30;99.90
6098;DHT22;3077;50.922;6.584;2022-10-16T03:08:54;14.20;99.90
6098;DHT22;3077;50.922;6.584;2022-10-16T03:11:19;14.10;99.90
6098;DHT22;3077;50.922;6.584;2022-10-16T03:13:45;14.10;99.90
6098;DHT22;3077;50.922;6.584;2022-10-16T03:16:11;14.10;99.90
6098;DHT22;3077;50.922;6.584;2022-10-16T03:18:36;14.10;99.90
6098;DHT22;3077;50.922;6.584;2022-10-16T03:21:02;14.10;99.90
6098;DHT22;3077;50.922;6.584;2022-10-16T03:23:27;14.20;99.90
6098;DHT22;3077;50.922;6.584;2022-10-16T03:25:54;14.30;99.90
6098;DHT22;3077;50.922;6.584;2022-10-16T03:28:19;14.30;99.90
6098;DHT22;3077;50.922;6.584;2022-10-16T03:30:45;14.30;99.90
6098;DHT22;3077;50.922;6.584;2022-10-16T03:33:11;14.30;99.90
6098;DHT22;3077;50.922;6.584;2022-10-16T03:35:36;14.40;99.90
6098;DHT22;3077;50.922;6.584;2022-10-16T03:38:02;14.40;99.90
6098;DHT22;3077;50.922;6.584;2022-10-16T03:40:28;14.40;99.90
6098;DHT22;3077;50.922;6.584;2022-10-16T03:42:53;14.30;99.90
6098;DHT22;3077;50.922;6.584;2022-10-16T03:45:23;14.30;99.90
6098;DHT22;3077;50.922;6.584;2022-10-16T03:47:48;14.30;99.90
6098;DHT22;3077;50.922;6.584;2022-10-16T03:50:14;14.30;99.90
6098;DHT22;3077;50.922;6.584;2022-10-16T03:52:40;14.30;99.90
6098;DHT22;3077;50.922;6.584;2022-10-16T03:55:06;14.30;99.90
6098;DHT22;3077;50.922;6.584;2022-10-16T03:57:32;14.40;99.90
6098;DHT22;3077;50.922;6.584;2022-10-16T03:59:57;14.40;99.90
6098;DHT22;3077;50.922;6.584;2022-10-16T04:02:23;14.40;99.90
6098;DHT22;3077;50.922;6.584;2022-10-16T04:04:49;14.40;99.90
6098;DHT22;3077;50.922;6.584;2022-10-16T04:07:14;14.30;99.90
6098;DHT22;3077;50.922;6.584;2022-10-16T04:09:40;14.30;99.90
6098;DHT22;3077;50.922;6.584;2022-10-16T04:12:06;14.20;99.90
6098;DHT22;3077;50.922;6.584;2022-10-16T04:14:31;14.20;99.90
6098;DHT22;3077;50.922;6.584;2022-10-16T04:16:57;14.10;99.90
6098;DHT22;3077;50.922;6.584;2022-10-16T04:19:22;14.10;99.90
6098;DHT22;3077;50.922;6.584;2022-10-16T04:21:48;14.00;99.90
6098;DHT22;3077;50.922;6.584;2022-10-16T04:24:13;14.00;99.90
6098;DHT22;3077;50.922;6.584;2022-10-16T04:26:39;14.00;99.90
6098;DHT22;3077;50.922;6.584;2022-10-16T04:29:04;14.00;99.90
6098;DHT22;3077;50.922;6.584;2022-10-16T04:31:31;14.00;99.90
6098;DHT22;3077;50.922;6.584;2022-10-16T04:33:57;13.90;99.90
6098;DHT22;3077;50.922;6.584;2022-10-16T04:36:22;13.90;99.90
6098;DHT22;3077;50.922;6.584;2022-10-16T04:38:48;13.90;99.90
6098;DHT22;3077;50.922;6.584;2022-10-16T04:41:13;13.90;99.90
6098;DHT22;3077;50.922;6.584;2022-10-16T04:43:39;13.80;99.90
6098;DHT22;3077;50.922;6.584;2022-10-16T04:46:05;13.80;99.90
6098;DHT22;3077;50.922;6.584;2022-10-16T04:48:31;13.80;99.90
6098;DHT22;3077;50.922;6.584;2022-10-16T04:50:57;13.80;99.90
6098;DHT22;3077;50.922;6.584;2022-10-16T04:53:22;13.90;99.90
6098;DHT22;3077;50.922;6.584;2022-10-16T04:55:48;13.90;99.90
6098;DHT22;3077;50.922;6.584;2022-10-16T04:58:14;13.80;99.90
6098;DHT22;3077;50.922;6.584;2022-10-16T05:00:39;13.70;99.90
6098;DHT22;3077;50.922;6.584;2022-10-16T05:03:05;13.70;99.90
6098;DHT22;3077;50.922;6.584;2022-10-16T05:05:34;13.60;99.90
6098;DHT22;3077;50.922;6.584;2022-10-16T05:08:00;13.70;99.90
6098;DHT22;3077;50.922;6.584;2022-10-16T05:10:26;13.80;99.90
6098;DHT22;3077;50.922;6.584;2022-10-16T05:12:51;13.80;99.90
6098;DHT22;3077;50.922;6.584;2022-10-16T05:15:18;13.80;99.90
6098;DHT22;3077;50.922;6.584;2022-10-16T05:17:44;13.70;99.90
6098;DHT22;3077;50.922;6.584;2022-10-16T05:20:09;13.70;99.90
6098;DHT22;3077;50.922;6.584;2022-10-16T05:22:35;13.60;99.90
6098;DHT22;3077;50.922;6.584;2022-10-16T05:25:01;13.60;99.90
6098;DHT22;3077;50.922;6.584;2022-10-16T05:27:26;13.60;99.90
6098;DHT22;3077;50.922;6.584;2022-10-16T05:29:52;13.60;99.90
6098;DHT22;3077;50.922;6.584;2022-10-16T05:32:18;13.60;99.90
6098;DHT22;3077;50.922;6.584;2022-10-16T05:34:44;13.60;99.90
6098;DHT22;3077;50.922;6.584;2022-10-16T05:37:10;13.60;99.90
6098;DHT22;3077;50.922;6.584;2022-10-16T05:39:37;13.60;99.90
6098;DHT22;3077;50.922;6.584;2022-10-16T05:42:03;13.60;99.90
6098;DHT22;3077;50.922;6.584;2022-10-16T05:44:29;13.60;99.90
6098;DHT22;3077;50.922;6.584;2022-10-16T05:46:54;13.60;99.90
6098;DHT22;3077;50.922;6.584;2022-10-16T05:49:20;13.60;99.90
6098;DHT22;3077;50.922;6.584;2022-10-16T05:51:46;13.60;99.90
6098;DHT22;3077;50.922;6.584;2022-10-16T05:54:11;13.60;99.90
6098;DHT22;3077;50.922;6.584;2022-10-16T05:56:37;13.60;99.90
6098;DHT22;3077;50.922;6.584;2022-10-16T05:59:05;13.60;99.90
6098;DHT22;3077;50.922;6.584;2022-10-16T06:01:32;13.70;99.90
6098;DHT22;3077;50.922;6.584;2022-10-16T06:03:57;13.80;99.90
6098;DHT22;3077;50.922;6.584;2022-10-16T06:06:26;13.90;99.90
6098;DHT22;3077;50.922;6.584;2022-10-16T06:08:53;13.80;99.90
6098;DHT22;3077;50.922;6.584;2022-10-16T06:11:24;13.80;99.90
6098;DHT22;3077;50.922;6.584;2022-10-16T06:13:51;13.70;99.90
6098;DHT22;3077;50.922;6.584;2022-10-16T06:16:17;13.70;99.90
6098;DHT22;3077;50.922;6.584;2022-10-16T06:18:44;13.60;99.90
6098;DHT22;3077;50.922;6.584;2022-10-16T06:21:12;13.60;99.90
6098;DHT22;3077;50.922;6.584;2022-10-16T06:23:39;13.70;99.90
6098;DHT22;3077;50.922;6.584;2022-10-16T06:26:09;13.70;99.90
6098;DHT22;3077;50.922;6.584;2022-10-16T06:28:35;13.70;99.90
6098;DHT22;3077;50.922;6.584;2022-10-16T06:31:02;13.80;99.90
6098;DHT22;3077;50.922;6.584;2022-10-16T06:33:28;13.90;99.90
6098;DHT22;3077;50.922;6.584;2022-10-16T06:35:54;13.90;99.90
6098;DHT22;3077;50.922;6.584;2022-10-16T06:38:24;14.00;99.90
6098;DHT22;3077;50.922;6.584;2022-10-16T06:40:50;14.00;99.90
6098;DHT22;3077;50.922;6.584;2022-10-16T06:43:16;14.10;99.90
6098;DHT22;3077;50.922;6.584;2022-10-16T06:45:41;14.10;99.90
6098;DHT22;3077;50.922;6.584;2022-10-16T06:48:07;14.10;99.90
6098;DHT22;3077;50.922;6.584;2022-10-16T06:50:32;14.20;99.90
6098;DHT22;3077;50.922;6.584;2022-10-16T06:52:58;14.20;99.90
6098;DHT22;3077;50.922;6.584;2022-10-16T06:55:24;14.30;99.90
6098;DHT22;3077;50.922;6.584;2022-10-16T06:57:49;14.30;99.90
6098;DHT22;3077;50.922;6.584;2022-10-16T07:00:15;14.40;99.90
6098;DHT22;3077;50.922;6.584;2022-10-16T07:02:41;14.50;99.90
6098;DHT22;3077;50.922;6.584;2022-10-16T07:05:06;14.60;99.90
6098;DHT22;3077;50.922;6.584;2022-10-16T07:07:32;14.60;99.90
6098;DHT22;3077;50.922;6.584;2022-10-16T07:09:58;14.60;99.90
6098;DHT22;3077;50.922;6.584;2022-10-16T07:12:23;14.70;99.90
6098;DHT22;3077;50.922;6.584;2022-10-16T07:14:49;14.70;99.90
6098;DHT22;3077;50.922;6.584;2022-10-16T07:17:17;14.70;99.90
6098;DHT22;3077;50.922;6.584;2022-10-16T07:19:43;14.70;99.90
6098;DHT22;3077;50.922;6.584;2022-10-16T07:22:08;14.70;99.90
6098;DHT22;3077;50.922;6.584;2022-10-16T07:24:34;14.70;99.90
6098;DHT22;3077;50.922;6.584;2022-10-16T07:27:00;14.70;99.90
6098;DHT22;3077;50.922;6.584;2022-10-16T07:29:26;14.70;99.90
6098;DHT22;3077;50.922;6.584;2022-10-16T07:31:51;14.70;99.90
6098;DHT22;3077;50.922;6.584;2022-10-16T07:34:18;14.80;99.90
6098;DHT22;3077;50.922;6.584;2022-10-16T07:36:47;14.80;99.90
6098;DHT22;3077;50.922;6.584;2022-10-16T07:39:12;14.80;99.90
6098;DHT22;3077;50.922;6.584;2022-10-16T07:41:38;14.90;99.90
6098;DHT22;3077;50.922;6.584;2022-10-16T07:44:04;14.90;99.90
6098;DHT22;3077;50.922;6.584;2022-10-16T07:46:30;14.90;99.90
6098;DHT22;3077;50.922;6.584;2022-10-16T07:48:56;15.00;99.90
6098;DHT22;3077;50.922;6.584;2022-10-16T07:51:23;14.90;99.90
6098;DHT22;3077;50.922;6.584;2022-10-16T07:53:49;15.00;99.90
6098;DHT22;3077;50.922;6.584;2022-10-16T07:56:16;15.00;99.90
6098;DHT22;3077;50.922;6.584;2022-10-16T07:58:42;15.10;99.90
6098;DHT22;3077;50.922;6.584;2022-10-16T08:01:10;15.20;99.90
6098;DHT22;3077;50.922;6.584;2022-10-16T08:03:36;15.20;99.90
6098;DHT22;3077;50.922;6.584;2022-10-16T08:06:03;15.40;99.90
6098;DHT22;3077;50.922;6.584;2022-10-16T08:08:29;15.50;99.90
6098;DHT22;3077;50.922;6.584;2022-10-16T08:10:55;15.60;99.90
6098;DHT22;3077;50.922;6.584;2022-10-16T08:13:21;15.60;99.90
6098;DHT22;3077;50.922;6.584;2022-10-16T08:15:47;15.70;99.90
6098;DHT22;3077;50.922;6.584;2022-10-16T08:18:13;15.70;99.90
6098;DHT22;3077;50.922;6.584;2022-10-16T08:20:40;15.80;99.90
6098;DHT22;3077;50.922;6.584;2022-10-16T08:23:07;15.70;99.90
6098;DHT22;3077;50.922;6.584;2022-10-16T08:25:35;15.80;99.90
6098;DHT22;3077;50.922;6.584;2022-10-16T08:28:03;15.90;99.90
6098;DHT22;3077;50.922;6.584;2022-10-16T08:30:30;15.90;99.90
6098;DHT22;3077;50.922;6.584;2022-10-16T08:32:55;16.00;99.90
6098;DHT22;3077;50.922;6.584;2022-10-16T08:35:21;16.10;99.90
6098;DHT22;3077;50.922;6.584;2022-10-16T08:37:46;16.20;99.90
6098;DHT22;3077;50.922;6.584;2022-10-16T08:40:19;16.30;99.90
6098;DHT22;3077;50.922;6.584;2022-10-16T08:42:53;16.40;99.90
6098;DHT22;3077;50.922;6.584;2022-10-16T08:50:32;16.50;99.90
6098;DHT22;3077;50.922;6.584;2022-10-16T08:53:04;16.50;99.90
6098;DHT22;3077;50.922;6.584;2022-10-16T08:57:59;16.70;99.90
6098;DHT22;3077;50.922;6.584;2022-10-16T09:00:26;16.80;99.90
6098;DHT22;3077;50.922;6.584;2022-10-16T09:03:16;16.80;99.90
6098;DHT22;3077;50.922;6.584;2022-10-16T09:05:52;16.90;99.90
6098;DHT22;3077;50.922;6.584;2022-10-16T09:08:52;17.00;99.90
6098;DHT22;3077;50.922;6.584;2022-10-16T09:11:43;17.10;99.90
6098;DHT22;3077;50.922;6.584;2022-10-16T09:17:30;17.30;99.90
6098;DHT22;3077;50.922;6.584;2022-10-16T09:25:31;17.50;99.90
6098;DHT22;3077;50.922;6.584;2022-10-16T09:27:57;17.50;99.90
6098;DHT22;3077;50.922;6.584;2022-10-16T09:30:26;17.60;99.90
6098;DHT22;3077;50.922;6.584;2022-10-16T09:32:53;17.60;99.90
6098;DHT22;3077;50.922;6.584;2022-10-16T09:35:31;17.70;99.90
6098;DHT22;3077;50.922;6.584;2022-10-16T09:37:58;17.70;99.90
6098;DHT22;3077;50.922;6.584;2022-10-16T09:42:56;18.00;99.90
6098;DHT22;3077;50.922;6.584;2022-10-16T09:45:23;18.00;99.90
6098;DHT22;3077;50.922;6.584;2022-10-16T09:47:49;18.00;99.90
6098;DHT22;3077;50.922;6.584;2022-10-16T09:50:24;18.10;99.90
6098;DHT22;3077;50.922;6.584;2022-10-16T09:53:03;18.30;99.90
6098;DHT22;3077;50.922;6.584;2022-10-16T09:55:29;18.30;99.90
6098;DHT22;3077;50.922;6.584;2022-10-16T09:57:55;18.50;99.90
6098;DHT22;3077;50.922;6.584;2022-10-16T10:00:22;18.60;99.90
6098;DHT22;3077;50.922;6.584;2022-10-16T10:02:48;18.80;99.90
6098;DHT22;3077;50.922;6.584;2022-10-16T10:05:25;18.90;99.90
6098;DHT22;3077;50.922;6.584;2022-10-16T10:07:59;19.00;99.90
6098;DHT22;3077;50.922;6.584;2022-10-16T10:10:30;19.20;99.90
6098;DHT22;3077;50.922;6.584;2022-10-16T10:12:57;19.20;99.90
6098;DHT22;3077;50.922;6.584;2022-10-16T10:15:23;19.40;99.90
6098;DHT22;3077;50.922;6.584;2022-10-16T10:17:59;19.40;99.90
6098;DHT22;3077;50.922;6.584;2022-10-16T10:20:28;19.50;99.90
6098;DHT22;3077;50.922;6.584;2022-10-16T10:22:54;19.50;99.90
6098;DHT22;3077;50.922;6.584;2022-10-16T10:31:06;19.70;99.90
6098;DHT22;3077;50.922;6.584;2022-10-16T10:38:57;19.90;99.90
6098;DHT22;3077;50.922;6.584;2022-10-16T10:44:19;19.80;99.90
6098;DHT22;3077;50.922;6.584;2022-10-16T10:46:51;19.80;99.90
6098;DHT22;3077;50.922;6.584;2022-10-16T10:55:08;20.20;99.90
6098;DHT22;3077;50.922;6.584;2022-10-16T11:00:40;20.50;99.90
6098;DHT22;3077;50.922;6.584;2022-10-16T11:06:06;20.10;99.90
6098;DHT22;3077;50.922;6.584;2022-10-16T11:08:37;20.00;99.90
6098;DHT22;3077;50.922;6.584;2022-10-16T11:16:18;20.30;99.90
6098;DHT22;3077;50.922;6.584;2022-10-16T11:19:09;20.70;99.90
6098;DHT22;3077;50.922;6.584;2022-10-16T11:21:49;21.00;99.90
6098;DHT22;3077;50.922;6.584;2022-10-16T11:24:41;21.40;99.90
6098;DHT22;3077;50.922;6.584;2022-10-16T11:27:15;22.30;99.90
6098;DHT22;3077;50.922;6.584;2022-10-16T11:29:58;23.30;99.90
6098;DHT22;3077;50.922;6.584;2022-10-16T11:35:25;24.60;99.90
6098;DHT22;3077;50.922;6.584;2022-10-16T11:37:58;24.50;99.90
6098;DHT22;3077;50.922;6.584;2022-10-16T11:40:31;24.80;99.90
6098;DHT22;3077;50.922;6.584;2022-10-16T11:45:56;26.40;95.10
6098;DHT22;3077;50.922;6.584;2022-10-16T11:48:59;26.60;75.80
6098;DHT22;3077;50.922;6.584;2022-10-16T11:56:45;26.40;67.20
6098;DHT22;3077;50.922;6.584;2022-10-16T11:59:23;26.40;63.00
6098;DHT22;3077;50.922;6.584;2022-10-16T12:04:43;25.70;70.00
6098;DHT22;3077;50.922;6.584;2022-10-16T12:07:22;25.20;68.00
6098;DHT22;3077;50.922;6.584;2022-10-16T12:09:49;24.70;77.80
6098;DHT22;3077;50.922;6.584;2022-10-16T12:12:46;24.30;84.70
6098;DHT22;3077;50.922;6.584;2022-10-16T12:15:29;23.90;94.70
6098;DHT22;3077;50.922;6.584;2022-10-16T12:17:55;23.50;93.60
6098;DHT22;3077;50.922;6.584;2022-10-16T12:20:27;23.30;98.20
6098;DHT22;3077;50.922;6.584;2022-10-16T12:23:04;23.20;96.90
6098;DHT22;3077;50.922;6.584;2022-10-16T12:25:32;23.00;99.90
6098;DHT22;3077;50.922;6.584;2022-10-16T12:28:04;22.80;99.90
6098;DHT22;3077;50.922;6.584;2022-10-16T12:30:34;22.60;99.90
6098;DHT22;3077;50.922;6.584;2022-10-16T12:33:05;22.80;99.90
6098;DHT22;3077;50.922;6.584;2022-10-16T12:35:43;23.00;99.90
6098;DHT22;3077;50.922;6.584;2022-10-16T12:38:45;24.00;99.90
6098;DHT22;3077;50.922;6.584;2022-10-16T12:41:11;25.20;97.40
6098;DHT22;3077;50.922;6.584;2022-10-16T12:43:40;25.90;81.30
6098;DHT22;3077;50.922;6.584;2022-10-16T12:48:36;25.90;61.20
6098;DHT22;3077;50.922;6.584;2022-10-16T12:51:24;26.00;62.60
6098;DHT22;3077;50.922;6.584;2022-10-16T12:54:18;25.80;62.60
6098;DHT22;3077;50.922;6.584;2022-10-16T12:56:57;25.70;60.30
6098;DHT22;3077;50.922;6.584;2022-10-16T12:59:42;25.80;58.10
6098;DHT22;3077;50.922;6.584;2022-10-16T13:08:16;26.60;51.50
6098;DHT22;3077;50.922;6.584;2022-10-16T13:14:07;25.80;47.30
6098;DHT22;3077;50.922;6.584;2022-10-16T13:22:24;27.20;53.40
6098;DHT22;3077;50.922;6.584;2022-10-16T13:30:22;31.20;31.50
6098;DHT22;3077;50.922;6.584;2022-10-16T13:32:56;32.30;26.90
6098;DHT22;3077;50.922;6.584;2022-10-16T13:35:26;32.90;22.90
6098;DHT22;3077;50.922;6.584;2022-10-16T13:38:13;33.10;19.40
6098;DHT22;3077;50.922;6.584;2022-10-16T13:40:56;32.80;17.30
6098;DHT22;3077;50.922;6.584;2022-10-16T13:43:26;32.00;16.50
6098;DHT22;3077;50.922;6.584;2022-10-16T13:45:57;31.10;19.10
6098;DHT22;3077;50.922;6.584;2022-10-16T13:48:23;30.60;20.60
6098;DHT22;3077;50.922;6.584;2022-10-16T13:53:39;31.40;20.50
6098;DHT22;3077;50.922;6.584;2022-10-16T13:56:11;31.40;19.00
6098;DHT22;3077;50.922;6.584;2022-10-16T13:58:37;30.80;19.80
6098;DHT22;3077;50.922;6.584;2022-10-16T14:01:14;30.20;20.50
6098;DHT22;3077;50.922;6.584;2022-10-16T14:03:41;29.60;21.20
6098;DHT22;3077;50.922;6.584;2022-10-16T14:06:15;29.50;23.90
6098;DHT22;3077;50.922;6.584;2022-10-16T14:08:44;29.80;23.90
6098;DHT22;3077;50.922;6.584;2022-10-16T14:11:11;29.40;23.30
6098;DHT22;3077;50.922;6.584;2022-10-16T14:13:42;28.70;22.70
6098;DHT22;3077;50.922;6.584;2022-10-16T14:16:22;28.00;24.70
6098;DHT22;3077;50.922;6.584;2022-10-16T14:19:06;27.40;25.90
6098;DHT22;3077;50.922;6.584;2022-10-16T14:21:34;26.80;30.40
6098;DHT22;3077;50.922;6.584;2022-10-16T14:24:11;26.40;33.50
6098;DHT22;3077;50.922;6.584;2022-10-16T14:26:44;26.10;36.00
6098;DHT22;3077;50.922;6.584;2022-10-16T14:29:20;25.70;40.50
6098;DHT22;3077;50.922;6.584;2022-10-16T14:31:56;25.40;44.60
6098;DHT22;3077;50.922;6.584;2022-10-16T14:34:29;25.20;46.20
6098;DHT22;3077;50.922;6.584;2022-10-16T14:37:05;24.90;47.90
6098;DHT22;3077;50.922;6.584;2022-10-16T14:39:33;24.70;54.40
6098;DHT22;3077;50.922;6.584;2022-10-16T14:41:59;24.50;61.20
6098;DHT22;3077;50.922;6.584;2022-10-16T14:44:33;24.40;73.90
6098;DHT22;3077;50.922;6.584;2022-10-16T14:47:12;24.30;75.20
6098;DHT22;3077;50.922;6.584;2022-10-16T14:49:38;24.10;79.00
6098;DHT22;3077;50.922;6.584;2022-10-16T14:52:11;24.10;89.00
6098;DHT22;3077;50.922;6.584;2022-10-16T14:54:37;24.10;89.20
6098;DHT22;3077;50.922;6.584;2022-10-16T14:57:03;24.10;90.70
6098;DHT22;3077;50.922;6.584;2022-10-16T14:59:40;24.10;91.60
6098;DHT22;3077;50.922;6.584;2022-10-16T15:02:33;24.30;95.40
6098;DHT22;3077;50.922;6.584;2022-10-16T15:05:21;25.10;90.70
6098;DHT22;3077;50.922;6.584;2022-10-16T15:07:47;25.60;79.80
6098;DHT22;3077;50.922;6.584;2022-10-16T15:10:15;25.50;75.50
6098;DHT22;3077;50.922;6.584;2022-10-16T15:12:41;25.40;76.00
6098;DHT22;3077;50.922;6.584;2022-10-16T15:15:34;25.10;83.70
6098;DHT22;3077;50.922;6.584;2022-10-16T15:18:00;24.70;83.40
6098;DHT22;3077;50.922;6.584;2022-10-16T15:20:35;24.40;86.70
6098;DHT22;3077;50.922;6.584;2022-10-16T15:23:02;24.20;92.10
6098;DHT22;3077;50.922;6.584;2022-10-16T15:25:44;24.00;93.70
6098;DHT22;3077;50.922;6.584;2022-10-16T15:28:12;23.80;96.50
6098;DHT22;3077;50.922;6.584;2022-10-16T15:30:38;23.60;99.80
6098;DHT22;3077;50.922;6.584;2022-10-16T15:33:05;23.40;99.90
6098;DHT22;3077;50.922;6.584;2022-10-16T15:35:34;23.30;99.90
6098;DHT22;3077;50.922;6.584;2022-10-16T15:38:00;23.10;99.90
6098;DHT22;3077;50.922;6.584;2022-10-16T15:40:26;22.90;99.90
6098;DHT22;3077;50.922;6.584;2022-10-16T15:42:51;22.70;99.90
6098;DHT22;3077;50.922;6.584;2022-10-16T15:45:17;22.60;99.90
6098;DHT22;3077;50.922;6.584;2022-10-16T15:47:44;22.40;99.90
6098;DHT22;3077;50.922;6.584;2022-10-16T15:50:15;22.20;99.90
6098;DHT22;3077;50.922;6.584;2022-10-16T15:52:41;22.20;99.90
6098;DHT22;3077;50.922;6.584;2022-10-16T15:55:11;22.10;99.90
6098;DHT22;3077;50.922;6.584;2022-10-16T15:57:37;22.00;99.90
6098;DHT22;3077;50.922;6.584;2022-10-16T16:00:09;21.90;99.90
6098;DHT22;3077;50.922;6.584;2022-10-16T16:02:35;21.80;99.90
6098;DHT22;3077;50.922;6.584;2022-10-16T16:05:00;21.70;99.90
6098;DHT22;3077;50.922;6.584;2022-10-16T16:07:27;21.60;99.90
6098;DHT22;3077;50.922;6.584;2022-10-16T16:09:53;21.50;99.90
6098;DHT22;3077;50.922;6.584;2022-10-16T16:12:18;21.40;99.90
6098;DHT22;3077;50.922;6.584;2022-10-16T16:14:44;21.30;99.90
6098;DHT22;3077;50.922;6.584;2022-10-16T16:17:11;21.20;99.90
6098;DHT22;3077;50.922;6.584;2022-10-16T16:19:37;21.20;99.90
6098;DHT22;3077;50.922;6.584;2022-10-16T16:22:02;21.10;99.90
6098;DHT22;3077;50.922;6.584;2022-10-16T16:24:28;20.90;99.90
6098;DHT22;3077;50.922;6.584;2022-10-16T16:26:54;20.80;99.90
6098;DHT22;3077;50.922;6.584;2022-10-16T16:29:19;20.80;99.90
6098;DHT22;3077;50.922;6.584;2022-10-16T16:31:45;20.70;99.90
6098;DHT22;3077;50.922;6.584;2022-10-16T16:34:12;20.60;99.90
6098;DHT22;3077;50.922;6.584;2022-10-16T16:36:38;20.50;99.90
6098;DHT22;3077;50.922;6.584;2022-10-16T16:39:06;20.40;99.90
6098;DHT22;3077;50.922;6.584;2022-10-16T16:41:32;20.40;99.90
6098;DHT22;3077;50.922;6.584;2022-10-16T16:44:04;20.30;99.90
6098;DHT22;3077;50.922;6.584;2022-10-16T16:46:31;20.20;99.90
6098;DHT22;3077;50.922;6.584;2022-10-16T16:48:58;20.10;99.90
6098;DHT22;3077;50.922;6.584;2022-10-16T16:51:24;20.10;99.90
6098;DHT22;3077;50.922;6.584;2022-10-16T16:53:52;20.00;99.90
6098;DHT22;3077;50.922;6.584;2022-10-16T16:56:18;20.00;99.90
6098;DHT22;3077;50.922;6.584;2022-10-16T16:58:52;19.90;99.90
6098;DHT22;3077;50.922;6.584;2022-10-16T17:01:18;19.90;99.90
6098;DHT22;3077;50.922;6.584;2022-10-16T17:03:44;19.70;99.90
6098;DHT22;3077;50.922;6.584;2022-10-16T17:06:11;19.70;99.90
6098;DHT22;3077;50.922;6.584;2022-10-16T17:08:38;19.70;99.90
6098;DHT22;3077;50.922;6.584;2022-10-16T17:11:04;19.70;99.90
6098;DHT22;3077;50.922;6.584;2022-10-16T17:13:32;19.60;99.90
6098;DHT22;3077;50.922;6.584;2022-10-16T17:16:04;19.60;99.90
6098;DHT22;3077;50.922;6.584;2022-10-16T17:18:31;19.60;99.90
6098;DHT22;3077;50.922;6.584;2022-10-16T17:21:01;19.60;99.90
6098;DHT22;3077;50.922;6.584;2022-10-16T17:23:27;19.60;99.90
6098;DHT22;3077;50.922;6.584;2022-10-16T17:25:53;19.60;99.90
6098;DHT22;3077;50.922;6.584;2022-10-16T17:28:19;19.50;99.90
6098;DHT22;3077;50.922;6.584;2022-10-16T17:30:44;19.50;99.90
6098;DHT22;3077;50.922;6.584;2022-10-16T17:33:11;19.50;99.90
6098;DHT22;3077;50.922;6.584;2022-10-16T17:35:41;19.50;99.90
6098;DHT22;3077;50.922;6.584;2022-10-16T17:38:07;19.50;99.90
6098;DHT22;3077;50.922;6.584;2022-10-16T17:40:34;19.60;99.90
6098;DHT22;3077;50.922;6.584;2022-10-16T17:43:00;19.60;99.90
6098;DHT22;3077;50.922;6.584;2022-10-16T17:45:26;19.60;99.90
6098;DHT22;3077;50.922;6.584;2022-10-16T17:47:51;19.50;99.90
6098;DHT22;3077;50.922;6.584;2022-10-16T17:50:17;19.60;99.90
6098;DHT22;3077;50.922;6.584;2022-10-16T17:52:43;19.60;99.90
6098;DHT22;3077;50.922;6.584;2022-10-16T17:55:09;19.50;99.90